sensor_id;sensor_type;location;lat;lon;timestamp;P1;durP1;ratioP1;P2;durP2;ratioP2
29358;SDS011;16347;53.232;6.556;2022-10-16T00:01:23;7.90;;;1.95;;
29358;SDS011;16347;53.232;6.556;2022-10-16T00:03:54;6.97;;;1.45;;
29358;SDS011;16347;53.232;6.556;2022-10-16T00:06:23;10.75;;;1.90;;
29358;SDS011;16347;53.232;6.556;2022-10-16T00:08:51;8.25;;;1.52;;
29358;SDS011;16347;53.232;6.556;2022-10-16T00:11:21;5.95;;;1.83;;
29358;SDS011;16347;53.232;6.556;2022-10-16T00:13:53;9.75;;;1.92;;
29358;SDS011;16347;53.232;6.556;2022-10-16T00:16:23;10.02;;;2.28;;
29358;SDS011;16347;53.232;6.556;2022-10-16T00:18:51;10.15;;;2.42;;
29358;SDS011;16347;53.232;6.556;2022-10-16T00:21:20;12.68;;;2.28;;
29358;SDS011;16347;53.232;6.556;2022-10-16T00:24:10;7.03;;;1.80;;
29358;SDS011;16347;53.232;6.556;2022-10-16T00:26:38;12.23;;;1.70;;
29358;SDS011;16347;53.232;6.556;2022-10-16T00:29:08;13.73;;;1.75;;
29358;SDS011;16347;53.232;6.556;2022-10-16T00:31:37;8.02;;;2.00;;
29358;SDS011;16347;53.232;6.556;2022-10-16T00:34:05;12.55;;;2.47;;
29358;SDS011;16347;53.232;6.556;2022-10-16T00:36:32;12.98;;;1.85;;
29358;SDS011;16347;53.232;6.556;2022-10-16T00:39:00;12.90;;;1.73;;
29358;SDS011;16347;53.232;6.556;2022-10-16T00:41:29;11.85;;;1.77;;
29358;SDS011;16347;53.232;6.556;2022-10-16T00:43:57;8.80;;;1.73;;
29358;SDS011;16347;53.232;6.556;2022-10-16T00:46:37;7.88;;;1.90;;
29358;SDS011;16347;53.232;6.556;2022-10-16T00:49:09;5.60;;;1.30;;
29358;SDS011;16347;53.232;6.556;2022-10-16T00:51:39;11.20;;;1.88;;
29358;SDS011;16347;53.232;6.556;2022-10-16T00:54:09;7.40;;;2.00;;
29358;SDS011;16347;53.232;6.556;2022-10-16T00:56:39;5.30;;;1.70;;
29358;SDS011;16347;53.232;6.556;2022-10-16T00:59:10;5.85;;;1.60;;
29358;SDS011;16347;53.232;6.556;2022-10-16T01:01:45;5.22;;;1.48;;
29358;SDS011;16347;53.232;6.556;2022-10-16T01:04:14;10.23;;;1.85;;
29358;SDS011;16347;53.232;6.556;2022-10-16T01:06:43;5.55;;;1.70;;
29358;SDS011;16347;53.232;6.556;2022-10-16T01:09:20;12.50;;;1.50;;
29358;SDS011;16347;53.232;6.556;2022-10-16T01:11:57;13.35;;;1.75;;
29358;SDS011;16347;53.232;6.556;2022-10-16T01:14:36;5.25;;;1.45;;
29358;SDS011;16347;53.232;6.556;2022-10-16T01:17:14;6.03;;;1.60;;
29358;SDS011;16347;53.232;6.556;2022-10-16T01:19:51;7.65;;;1.58;;
29358;SDS011;16347;53.232;6.556;2022-10-16T01:22:32;9.13;;;1.52;;
29358;SDS011;16347;53.232;6.556;2022-10-16T01:25:08;5.03;;;1.50;;
29358;SDS011;16347;53.232;6.556;2022-10-16T01:27:45;11.05;;;1.60;;
29358;SDS011;16347;53.232;6.556;2022-10-16T01:30:16;10.63;;;1.50;;
29358;SDS011;16347;53.232;6.556;2022-10-16T01:32:49;8.55;;;1.70;;
29358;SDS011;16347;53.232;6.556;2022-10-16T01:35:21;10.07;;;1.83;;
29358;SDS011;16347;53.232;6.556;2022-10-16T01:37:53;6.43;;;1.80;;
29358;SDS011;16347;53.232;6.556;2022-10-16T01:40:26;6.93;;;1.70;;
29358;SDS011;16347;53.232;6.556;2022-10-16T01:42:59;7.40;;;1.23;;
29358;SDS011;16347;53.232;6.556;2022-10-16T01:45:31;9.23;;;1.48;;
29358;SDS011;16347;53.232;6.556;2022-10-16T01:48:00;6.45;;;1.40;;
29358;SDS011;16347;53.232;6.556;2022-10-16T01:50:38;9.57;;;2.40;;
29358;SDS011;16347;53.232;6.556;2022-10-16T01:53:12;8.38;;;1.25;;
29358;SDS011;16347;53.232;6.556;2022-10-16T01:55:46;4.03;;;1.23;;
29358;SDS011;16347;53.232;6.556;2022-10-16T01:58:21;7.32;;;1.70;;
29358;SDS011;16347;53.232;6.556;2022-10-16T02:00:52;8.23;;;1.33;;
29358;SDS011;16347;53.232;6.556;2022-10-16T02:03:26;7.80;;;1.65;;
29358;SDS011;16347;53.232;6.556;2022-10-16T02:05:56;6.70;;;1.48;;
29358;SDS011;16347;53.232;6.556;2022-10-16T02:08:28;9.13;;;1.50;;
29358;SDS011;16347;53.232;6.556;2022-10-16T02:10:59;5.18;;;1.40;;
29358;SDS011;16347;53.232;6.556;2022-10-16T02:13:30;14.57;;;1.48;;
29358;SDS011;16347;53.232;6.556;2022-10-16T02:16:03;4.93;;;1.30;;
29358;SDS011;16347;53.232;6.556;2022-10-16T02:18:31;7.28;;;1.52;;
29358;SDS011;16347;53.232;6.556;2022-10-16T02:21:00;11.48;;;2.10;;
29358;SDS011;16347;53.232;6.556;2022-10-16T02:23:35;8.03;;;1.63;;
29358;SDS011;16347;53.232;6.556;2022-10-16T02:26:09;5.32;;;1.52;;
29358;SDS011;16347;53.232;6.556;2022-10-16T02:31:15;4.63;;;1.33;;
29358;SDS011;16347;53.232;6.556;2022-10-16T02:36:16;7.10;;;1.83;;
29358;SDS011;16347;53.232;6.556;2022-10-16T02:38:45;6.65;;;1.52;;
29358;SDS011;16347;53.232;6.556;2022-10-16T02:41:13;12.43;;;1.50;;
29358;SDS011;16347;53.232;6.556;2022-10-16T02:43:42;9.55;;;1.58;;
29358;SDS011;16347;53.232;6.556;2022-10-16T02:46:11;9.20;;;1.55;;
29358;SDS011;16347;53.232;6.556;2022-10-16T02:48:39;6.43;;;1.50;;
29358;SDS011;16347;53.232;6.556;2022-10-16T02:51:06;5.90;;;1.20;;
29358;SDS011;16347;53.232;6.556;2022-10-16T02:53:34;4.85;;;1.58;;
29358;SDS011;16347;53.232;6.556;2022-10-16T02:56:02;5.63;;;1.50;;
29358;SDS011;16347;53.232;6.556;2022-10-16T02:58:31;9.98;;;2.05;;
29358;SDS011;16347;53.232;6.556;2022-10-16T03:01:01;4.75;;;1.38;;
29358;SDS011;16347;53.232;6.556;2022-10-16T03:03:29;3.95;;;1.50;;
29358;SDS011;16347;53.232;6.556;2022-10-16T03:05:57;7.68;;;1.60;;
29358;SDS011;16347;53.232;6.556;2022-10-16T03:08:25;4.55;;;1.70;;
29358;SDS011;16347;53.232;6.556;2022-10-16T03:10:53;3.50;;;1.33;;
29358;SDS011;16347;53.232;6.556;2022-10-16T03:13:20;2.35;;;1.13;;
29358;SDS011;16347;53.232;6.556;2022-10-16T03:15:49;8.82;;;1.73;;
29358;SDS011;16347;53.232;6.556;2022-10-16T03:18:18;6.53;;;1.42;;
29358;SDS011;16347;53.232;6.556;2022-10-16T03:20:46;13.32;;;1.50;;
29358;SDS011;16347;53.232;6.556;2022-10-16T03:23:15;7.53;;;1.27;;
29358;SDS011;16347;53.232;6.556;2022-10-16T03:25:45;5.95;;;1.65;;
29358;SDS011;16347;53.232;6.556;2022-10-16T03:28:14;4.10;;;1.33;;
29358;SDS011;16347;53.232;6.556;2022-10-16T03:30:42;3.63;;;1.38;;
29358;SDS011;16347;53.232;6.556;2022-10-16T03:33:11;5.60;;;1.13;;
29358;SDS011;16347;53.232;6.556;2022-10-16T03:35:41;8.07;;;1.33;;
29358;SDS011;16347;53.232;6.556;2022-10-16T03:38:11;5.32;;;1.40;;
29358;SDS011;16347;53.232;6.556;2022-10-16T03:40:40;6.13;;;1.38;;
29358;SDS011;16347;53.232;6.556;2022-10-16T03:43:14;4.35;;;1.60;;
29358;SDS011;16347;53.232;6.556;2022-10-16T03:45:46;4.82;;;1.55;;
29358;SDS011;16347;53.232;6.556;2022-10-16T03:48:15;4.78;;;1.35;;
29358;SDS011;16347;53.232;6.556;2022-10-16T03:50:54;3.35;;;1.33;;
29358;SDS011;16347;53.232;6.556;2022-10-16T03:53:28;7.85;;;1.42;;
29358;SDS011;16347;53.232;6.556;2022-10-16T03:55:58;4.05;;;1.23;;
29358;SDS011;16347;53.232;6.556;2022-10-16T03:58:29;3.40;;;1.70;;
29358;SDS011;16347;53.232;6.556;2022-10-16T04:01:07;5.10;;;1.75;;
29358;SDS011;16347;53.232;6.556;2022-10-16T04:03:36;5.20;;;1.58;;
29358;SDS011;16347;53.232;6.556;2022-10-16T04:06:07;4.40;;;1.38;;
29358;SDS011;16347;53.232;6.556;2022-10-16T04:08:44;5.25;;;1.48;;
29358;SDS011;16347;53.232;6.556;2022-10-16T04:11:17;9.50;;;1.75;;
29358;SDS011;16347;53.232;6.556;2022-10-16T04:13:45;4.60;;;1.20;;
29358;SDS011;16347;53.232;6.556;2022-10-16T04:16:17;4.40;;;1.55;;
29358;SDS011;16347;53.232;6.556;2022-10-16T04:18:46;3.65;;;1.63;;
29358;SDS011;16347;53.232;6.556;2022-10-16T04:21:23;5.47;;;1.47;;
29358;SDS011;16347;53.232;6.556;2022-10-16T04:24:03;6.57;;;1.30;;
29358;SDS011;16347;53.232;6.556;2022-10-16T04:26:40;4.95;;;1.85;;
29358;SDS011;16347;53.232;6.556;2022-10-16T04:29:09;4.78;;;1.55;;
29358;SDS011;16347;53.232;6.556;2022-10-16T04:31:38;4.82;;;1.70;;
29358;SDS011;16347;53.232;6.556;2022-10-16T04:34:09;2.97;;;1.35;;
29358;SDS011;16347;53.232;6.556;2022-10-16T04:36:46;5.93;;;1.52;;
29358;SDS011;16347;53.232;6.556;2022-10-16T04:39:16;4.43;;;1.55;;
29358;SDS011;16347;53.232;6.556;2022-10-16T04:41:49;4.78;;;1.70;;
29358;SDS011;16347;53.232;6.556;2022-10-16T04:44:18;12.65;;;1.92;;
29358;SDS011;16347;53.232;6.556;2022-10-16T04:46:50;4.03;;;2.05;;
29358;SDS011;16347;53.232;6.556;2022-10-16T04:49:19;3.30;;;1.33;;
29358;SDS011;16347;53.232;6.556;2022-10-16T04:51:53;9.10;;;2.03;;
29358;SDS011;16347;53.232;6.556;2022-10-16T04:54:22;5.90;;;1.73;;
29358;SDS011;16347;53.232;6.556;2022-10-16T04:56:50;5.82;;;1.67;;
29358;SDS011;16347;53.232;6.556;2022-10-16T04:59:19;4.18;;;1.52;;
29358;SDS011;16347;53.232;6.556;2022-10-16T05:01:52;6.75;;;1.48;;
29358;SDS011;16347;53.232;6.556;2022-10-16T05:04:22;8.75;;;2.30;;
29358;SDS011;16347;53.232;6.556;2022-10-16T05:06:55;5.68;;;1.70;;
29358;SDS011;16347;53.232;6.556;2022-10-16T05:09:28;6.90;;;1.42;;
29358;SDS011;16347;53.232;6.556;2022-10-16T05:11:57;5.05;;;1.70;;
29358;SDS011;16347;53.232;6.556;2022-10-16T05:14:27;5.10;;;1.65;;
29358;SDS011;16347;53.232;6.556;2022-10-16T05:16:56;5.28;;;1.80;;
29358;SDS011;16347;53.232;6.556;2022-10-16T05:19:25;7.20;;;1.45;;
29358;SDS011;16347;53.232;6.556;2022-10-16T05:22:01;11.55;;;2.00;;
29358;SDS011;16347;53.232;6.556;2022-10-16T05:24:34;3.67;;;1.77;;
29358;SDS011;16347;53.232;6.556;2022-10-16T05:27:03;5.70;;;1.77;;
29358;SDS011;16347;53.232;6.556;2022-10-16T05:29:41;8.55;;;2.50;;
29358;SDS011;16347;53.232;6.556;2022-10-16T05:32:10;4.63;;;1.80;;
29358;SDS011;16347;53.232;6.556;2022-10-16T05:34:39;3.47;;;1.58;;
29358;SDS011;16347;53.232;6.556;2022-10-16T05:37:09;5.15;;;1.83;;
29358;SDS011;16347;53.232;6.556;2022-10-16T05:39:39;5.88;;;1.67;;
29358;SDS011;16347;53.232;6.556;2022-10-16T05:42:09;5.03;;;2.20;;
29358;SDS011;16347;53.232;6.556;2022-10-16T05:44:40;11.05;;;2.03;;
29358;SDS011;16347;53.232;6.556;2022-10-16T05:47:12;6.05;;;1.73;;
29358;SDS011;16347;53.232;6.556;2022-10-16T05:49:42;4.55;;;1.92;;
29358;SDS011;16347;53.232;6.556;2022-10-16T05:52:13;5.57;;;1.60;;
29358;SDS011;16347;53.232;6.556;2022-10-16T05:54:43;7.28;;;2.22;;
29358;SDS011;16347;53.232;6.556;2022-10-16T05:57:12;8.70;;;2.33;;
29358;SDS011;16347;53.232;6.556;2022-10-16T05:59:41;6.90;;;1.85;;
29358;SDS011;16347;53.232;6.556;2022-10-16T06:02:10;8.93;;;2.13;;
29358;SDS011;16347;53.232;6.556;2022-10-16T06:04:41;8.35;;;2.58;;
29358;SDS011;16347;53.232;6.556;2022-10-16T06:07:10;5.25;;;2.15;;
29358;SDS011;16347;53.232;6.556;2022-10-16T06:09:44;7.95;;;1.98;;
29358;SDS011;16347;53.232;6.556;2022-10-16T06:12:16;5.13;;;2.25;;
29358;SDS011;16347;53.232;6.556;2022-10-16T06:14:45;6.35;;;2.30;;
29358;SDS011;16347;53.232;6.556;2022-10-16T06:17:16;8.93;;;2.40;;
29358;SDS011;16347;53.232;6.556;2022-10-16T06:19:44;12.30;;;2.38;;
29358;SDS011;16347;53.232;6.556;2022-10-16T06:22:14;12.27;;;2.20;;
29358;SDS011;16347;53.232;6.556;2022-10-16T06:24:44;4.75;;;2.40;;
29358;SDS011;16347;53.232;6.556;2022-10-16T06:27:14;4.82;;;2.38;;
29358;SDS011;16347;53.232;6.556;2022-10-16T06:29:43;12.25;;;3.97;;
29358;SDS011;16347;53.232;6.556;2022-10-16T06:32:11;4.63;;;1.80;;
29358;SDS011;16347;53.232;6.556;2022-10-16T06:34:39;6.38;;;2.10;;
29358;SDS011;16347;53.232;6.556;2022-10-16T06:37:09;7.63;;;2.38;;
29358;SDS011;16347;53.232;6.556;2022-10-16T06:39:37;4.45;;;2.33;;
29358;SDS011;16347;53.232;6.556;2022-10-16T06:42:07;4.72;;;2.05;;
29358;SDS011;16347;53.232;6.556;2022-10-16T06:44:35;9.00;;;2.45;;
29358;SDS011;16347;53.232;6.556;2022-10-16T06:47:03;5.60;;;2.42;;
29358;SDS011;16347;53.232;6.556;2022-10-16T06:49:32;4.38;;;2.08;;
29358;SDS011;16347;53.232;6.556;2022-10-16T06:52:00;7.68;;;2.63;;
29358;SDS011;16347;53.232;6.556;2022-10-16T06:54:29;6.90;;;2.42;;
29358;SDS011;16347;53.232;6.556;2022-10-16T06:57:09;7.90;;;2.60;;
29358;SDS011;16347;53.232;6.556;2022-10-16T06:59:37;6.28;;;2.42;;
29358;SDS011;16347;53.232;6.556;2022-10-16T07:02:05;10.48;;;2.60;;
29358;SDS011;16347;53.232;6.556;2022-10-16T07:04:35;6.75;;;2.08;;
29358;SDS011;16347;53.232;6.556;2022-10-16T07:07:03;8.98;;;2.70;;
29358;SDS011;16347;53.232;6.556;2022-10-16T07:09:35;10.70;;;2.67;;
29358;SDS011;16347;53.232;6.556;2022-10-16T07:12:03;11.85;;;2.78;;
29358;SDS011;16347;53.232;6.556;2022-10-16T07:14:33;11.80;;;2.15;;
29358;SDS011;16347;53.232;6.556;2022-10-16T07:17:01;11.27;;;2.22;;
29358;SDS011;16347;53.232;6.556;2022-10-16T07:19:30;11.50;;;2.05;;
29358;SDS011;16347;53.232;6.556;2022-10-16T07:22:00;6.55;;;1.98;;
29358;SDS011;16347;53.232;6.556;2022-10-16T07:24:28;5.82;;;1.92;;
29358;SDS011;16347;53.232;6.556;2022-10-16T07:26:56;10.68;;;2.78;;
29358;SDS011;16347;53.232;6.556;2022-10-16T07:29:23;10.45;;;2.58;;
29358;SDS011;16347;53.232;6.556;2022-10-16T07:31:53;7.97;;;2.40;;
29358;SDS011;16347;53.232;6.556;2022-10-16T07:34:21;12.70;;;2.30;;
29358;SDS011;16347;53.232;6.556;2022-10-16T07:36:49;10.90;;;3.30;;
29358;SDS011;16347;53.232;6.556;2022-10-16T07:39:18;9.90;;;1.90;;
29358;SDS011;16347;53.232;6.556;2022-10-16T07:41:46;7.05;;;2.38;;
29358;SDS011;16347;53.232;6.556;2022-10-16T07:44:15;7.32;;;1.88;;
29358;SDS011;16347;53.232;6.556;2022-10-16T07:46:45;11.63;;;2.30;;
29358;SDS011;16347;53.232;6.556;2022-10-16T07:49:14;9.45;;;2.20;;
29358;SDS011;16347;53.232;6.556;2022-10-16T07:51:42;7.60;;;2.22;;
29358;SDS011;16347;53.232;6.556;2022-10-16T07:54:10;7.60;;;2.05;;
29358;SDS011;16347;53.232;6.556;2022-10-16T07:56:38;6.22;;;2.22;;
29358;SDS011;16347;53.232;6.556;2022-10-16T07:59:09;7.28;;;2.50;;
29358;SDS011;16347;53.232;6.556;2022-10-16T08:01:37;4.38;;;2.10;;
29358;SDS011;16347;53.232;6.556;2022-10-16T08:04:05;11.07;;;3.00;;
29358;SDS011;16347;53.232;6.556;2022-10-16T08:06:36;5.97;;;2.22;;
29358;SDS011;16347;53.232;6.556;2022-10-16T08:09:06;8.57;;;2.50;;
29358;SDS011;16347;53.232;6.556;2022-10-16T08:11:34;9.20;;;4.28;;
29358;SDS011;16347;53.232;6.556;2022-10-16T08:14:02;4.63;;;2.65;;
29358;SDS011;16347;53.232;6.556;2022-10-16T08:16:30;7.47;;;2.15;;
29358;SDS011;16347;53.232;6.556;2022-10-16T08:19:00;13.93;;;3.10;;
29358;SDS011;16347;53.232;6.556;2022-10-16T08:21:28;8.48;;;2.50;;
29358;SDS011;16347;53.232;6.556;2022-10-16T08:24:00;6.93;;;2.13;;
29358;SDS011;16347;53.232;6.556;2022-10-16T08:26:28;8.75;;;2.20;;
29358;SDS011;16347;53.232;6.556;2022-10-16T08:28:56;8.13;;;2.60;;
29358;SDS011;16347;53.232;6.556;2022-10-16T08:31:24;4.00;;;2.03;;
29358;SDS011;16347;53.232;6.556;2022-10-16T08:33:53;9.55;;;1.83;;
29358;SDS011;16347;53.232;6.556;2022-10-16T08:36:22;7.05;;;2.10;;
29358;SDS011;16347;53.232;6.556;2022-10-16T08:38:50;6.15;;;2.15;;
29358;SDS011;16347;53.232;6.556;2022-10-16T08:41:31;5.10;;;2.13;;
29358;SDS011;16347;53.232;6.556;2022-10-16T08:44:39;5.82;;;1.90;;
29358;SDS011;16347;53.232;6.556;2022-10-16T08:47:26;8.32;;;1.85;;
29358;SDS011;16347;53.232;6.556;2022-10-16T08:50:08;6.00;;;1.75;;
29358;SDS011;16347;53.232;6.556;2022-10-16T08:52:39;9.35;;;1.98;;
29358;SDS011;16347;53.232;6.556;2022-10-16T08:55:10;9.93;;;2.00;;
29358;SDS011;16347;53.232;6.556;2022-10-16T08:57:52;5.43;;;1.60;;
29358;SDS011;16347;53.232;6.556;2022-10-16T09:00:20;4.82;;;1.65;;
29358;SDS011;16347;53.232;6.556;2022-10-16T09:02:50;11.18;;;1.77;;
29358;SDS011;16347;53.232;6.556;2022-10-16T09:05:27;9.63;;;1.73;;
29358;SDS011;16347;53.232;6.556;2022-10-16T09:08:14;9.00;;;1.75;;
29358;SDS011;16347;53.232;6.556;2022-10-16T09:10:50;8.77;;;1.95;;
29358;SDS011;16347;53.232;6.556;2022-10-16T09:13:29;14.95;;;1.95;;
29358;SDS011;16347;53.232;6.556;2022-10-16T09:16:09;13.85;;;2.08;;
29358;SDS011;16347;53.232;6.556;2022-10-16T09:18:43;13.07;;;2.42;;
29358;SDS011;16347;53.232;6.556;2022-10-16T09:21:16;10.15;;;1.38;;
29358;SDS011;16347;53.232;6.556;2022-10-16T09:23:49;10.65;;;1.85;;
29358;SDS011;16347;53.232;6.556;2022-10-16T09:26:18;8.57;;;1.77;;
29358;SDS011;16347;53.232;6.556;2022-10-16T09:28:51;16.45;;;1.85;;
29358;SDS011;16347;53.232;6.556;2022-10-16T09:31:20;8.18;;;1.48;;
29358;SDS011;16347;53.232;6.556;2022-10-16T09:33:51;7.40;;;1.63;;
29358;SDS011;16347;53.232;6.556;2022-10-16T09:36:22;13.52;;;2.03;;
29358;SDS011;16347;53.232;6.556;2022-10-16T09:39:01;12.02;;;1.70;;
29358;SDS011;16347;53.232;6.556;2022-10-16T09:41:33;11.70;;;2.05;;
29358;SDS011;16347;53.232;6.556;2022-10-16T09:44:05;12.27;;;2.42;;
29358;SDS011;16347;53.232;6.556;2022-10-16T09:46:42;11.30;;;2.53;;
29358;SDS011;16347;53.232;6.556;2022-10-16T09:49:18;11.65;;;1.75;;
29358;SDS011;16347;53.232;6.556;2022-10-16T09:51:50;18.02;;;2.25;;
29358;SDS011;16347;53.232;6.556;2022-10-16T09:54:20;10.68;;;1.60;;
29358;SDS011;16347;53.232;6.556;2022-10-16T09:56:48;12.93;;;2.30;;
29358;SDS011;16347;53.232;6.556;2022-10-16T09:59:20;13.57;;;1.75;;
29358;SDS011;16347;53.232;6.556;2022-10-16T10:01:50;14.10;;;2.00;;
29358;SDS011;16347;53.232;6.556;2022-10-16T10:04:20;18.15;;;2.30;;
29358;SDS011;16347;53.232;6.556;2022-10-16T10:06:52;15.25;;;2.30;;
29358;SDS011;16347;53.232;6.556;2022-10-16T10:09:23;10.95;;;2.20;;
29358;SDS011;16347;53.232;6.556;2022-10-16T10:11:53;10.40;;;1.70;;
29358;SDS011;16347;53.232;6.556;2022-10-16T10:14:25;18.50;;;2.33;;
29358;SDS011;16347;53.232;6.556;2022-10-16T10:17:08;11.63;;;2.28;;
29358;SDS011;16347;53.232;6.556;2022-10-16T10:19:40;12.90;;;2.28;;
29358;SDS011;16347;53.232;6.556;2022-10-16T10:22:16;15.77;;;2.25;;
29358;SDS011;16347;53.232;6.556;2022-10-16T10:24:54;18.23;;;2.70;;
29358;SDS011;16347;53.232;6.556;2022-10-16T10:27:24;7.60;;;1.35;;
29358;SDS011;16347;53.232;6.556;2022-10-16T10:30:00;13.80;;;2.28;;
29358;SDS011;16347;53.232;6.556;2022-10-16T10:32:35;16.60;;;2.42;;
29358;SDS011;16347;53.232;6.556;2022-10-16T10:35:13;13.48;;;2.05;;
29358;SDS011;16347;53.232;6.556;2022-10-16T10:37:51;19.05;;;2.65;;
29358;SDS011;16347;53.232;6.556;2022-10-16T10:40:34;17.15;;;2.58;;
29358;SDS011;16347;53.232;6.556;2022-10-16T10:43:16;15.43;;;2.22;;
29358;SDS011;16347;53.232;6.556;2022-10-16T10:45:57;13.15;;;2.15;;
29358;SDS011;16347;53.232;6.556;2022-10-16T10:48:38;17.60;;;2.47;;
29358;SDS011;16347;53.232;6.556;2022-10-16T10:51:27;24.58;;;2.78;;
29358;SDS011;16347;53.232;6.556;2022-10-16T10:54:06;18.23;;;2.13;;
29358;SDS011;16347;53.232;6.556;2022-10-16T10:56:44;17.05;;;2.33;;
29358;SDS011;16347;53.232;6.556;2022-10-16T11:02:25;16.38;;;2.80;;
29358;SDS011;16347;53.232;6.556;2022-10-16T11:08:04;19.17;;;2.35;;
29358;SDS011;16347;53.232;6.556;2022-10-16T11:10:42;14.82;;;3.05;;
29358;SDS011;16347;53.232;6.556;2022-10-16T11:16:13;12.20;;;2.10;;
29358;SDS011;16347;53.232;6.556;2022-10-16T11:18:49;28.35;;;3.03;;
29358;SDS011;16347;53.232;6.556;2022-10-16T11:21:24;13.27;;;1.83;;
29358;SDS011;16347;53.232;6.556;2022-10-16T11:23:57;17.88;;;2.17;;
29358;SDS011;16347;53.232;6.556;2022-10-16T11:26:30;17.52;;;2.40;;
29358;SDS011;16347;53.232;6.556;2022-10-16T11:29:03;15.68;;;2.53;;
29358;SDS011;16347;53.232;6.556;2022-10-16T11:31:40;19.33;;;2.03;;
29358;SDS011;16347;53.232;6.556;2022-10-16T11:34:17;13.50;;;1.92;;
29358;SDS011;16347;53.232;6.556;2022-10-16T11:36:53;22.75;;;2.25;;
29358;SDS011;16347;53.232;6.556;2022-10-16T11:39:25;15.85;;;3.00;;
29358;SDS011;16347;53.232;6.556;2022-10-16T11:41:55;13.38;;;2.70;;
29358;SDS011;16347;53.232;6.556;2022-10-16T11:44:36;14.25;;;2.10;;
29358;SDS011;16347;53.232;6.556;2022-10-16T11:47:14;20.60;;;2.53;;
29358;SDS011;16347;53.232;6.556;2022-10-16T11:50:13;14.20;;;2.83;;
29358;SDS011;16347;53.232;6.556;2022-10-16T11:52:52;20.73;;;2.40;;
29358;SDS011;16347;53.232;6.556;2022-10-16T11:55:27;15.38;;;2.22;;
29358;SDS011;16347;53.232;6.556;2022-10-16T11:58:01;11.73;;;2.75;;
29358;SDS011;16347;53.232;6.556;2022-10-16T12:00:35;16.88;;;2.22;;
29358;SDS011;16347;53.232;6.556;2022-10-16T12:03:11;14.25;;;2.60;;
29358;SDS011;16347;53.232;6.556;2022-10-16T12:05:52;20.55;;;2.90;;
29358;SDS011;16347;53.232;6.556;2022-10-16T12:08:30;15.32;;;2.35;;
29358;SDS011;16347;53.232;6.556;2022-10-16T12:11:08;19.80;;;2.15;;
29358;SDS011;16347;53.232;6.556;2022-10-16T12:13:47;20.08;;;2.50;;
29358;SDS011;16347;53.232;6.556;2022-10-16T12:16:22;17.70;;;2.85;;
29358;SDS011;16347;53.232;6.556;2022-10-16T12:19:02;16.45;;;2.40;;
29358;SDS011;16347;53.232;6.556;2022-10-16T12:21:40;20.00;;;2.90;;
29358;SDS011;16347;53.232;6.556;2022-10-16T12:24:19;16.60;;;2.15;;
29358;SDS011;16347;53.232;6.556;2022-10-16T12:26:59;17.15;;;2.47;;
29358;SDS011;16347;53.232;6.556;2022-10-16T12:29:32;20.00;;;2.28;;
29358;SDS011;16347;53.232;6.556;2022-10-16T12:32:03;13.70;;;2.53;;
29358;SDS011;16347;53.232;6.556;2022-10-16T12:34:37;14.88;;;2.97;;
29358;SDS011;16347;53.232;6.556;2022-10-16T12:37:10;22.80;;;2.97;;
29358;SDS011;16347;53.232;6.556;2022-10-16T12:39:42;19.75;;;2.97;;
29358;SDS011;16347;53.232;6.556;2022-10-16T12:42:20;12.07;;;2.15;;
29358;SDS011;16347;53.232;6.556;2022-10-16T12:44:59;16.30;;;2.20;;
29358;SDS011;16347;53.232;6.556;2022-10-16T12:47:36;18.95;;;2.53;;
29358;SDS011;16347;53.232;6.556;2022-10-16T12:53:02;16.92;;;3.08;;
29358;SDS011;16347;53.232;6.556;2022-10-16T12:55:34;22.38;;;2.70;;
29358;SDS011;16347;53.232;6.556;2022-10-16T12:58:14;20.15;;;3.22;;
29358;SDS011;16347;53.232;6.556;2022-10-16T13:01:10;19.27;;;2.80;;
29358;SDS011;16347;53.232;6.556;2022-10-16T13:07:02;18.30;;;2.47;;
29358;SDS011;16347;53.232;6.556;2022-10-16T13:09:49;20.42;;;2.63;;
29358;SDS011;16347;53.232;6.556;2022-10-16T13:12:41;10.77;;;2.40;;
29358;SDS011;16347;53.232;6.556;2022-10-16T13:15:24;12.70;;;2.45;;
29358;SDS011;16347;53.232;6.556;2022-10-16T13:18:05;12.73;;;1.80;;
29358;SDS011;16347;53.232;6.556;2022-10-16T13:20:46;17.83;;;2.22;;
29358;SDS011;16347;53.232;6.556;2022-10-16T13:25:59;8.60;;;2.10;;
29358;SDS011;16347;53.232;6.556;2022-10-16T13:28:37;9.13;;;1.50;;
29358;SDS011;16347;53.232;6.556;2022-10-16T13:31:09;12.80;;;2.05;;
29358;SDS011;16347;53.232;6.556;2022-10-16T13:33:45;13.27;;;2.28;;
29358;SDS011;16347;53.232;6.556;2022-10-16T13:36:19;18.23;;;2.45;;
29358;SDS011;16347;53.232;6.556;2022-10-16T13:38:57;13.43;;;1.98;;
29358;SDS011;16347;53.232;6.556;2022-10-16T13:41:30;15.50;;;2.13;;
29358;SDS011;16347;53.232;6.556;2022-10-16T13:43:58;10.65;;;1.98;;
29358;SDS011;16347;53.232;6.556;2022-10-16T13:46:26;13.43;;;2.13;;
29358;SDS011;16347;53.232;6.556;2022-10-16T13:48:57;11.05;;;2.35;;
29358;SDS011;16347;53.232;6.556;2022-10-16T13:51:26;26.23;;;2.90;;
29358;SDS011;16347;53.232;6.556;2022-10-16T13:53:56;18.40;;;2.92;;
29358;SDS011;16347;53.232;6.556;2022-10-16T13:56:25;11.90;;;2.13;;
29358;SDS011;16347;53.232;6.556;2022-10-16T13:58:59;17.10;;;1.85;;
29358;SDS011;16347;53.232;6.556;2022-10-16T14:01:29;13.27;;;2.42;;
29358;SDS011;16347;53.232;6.556;2022-10-16T14:04:02;18.98;;;2.10;;
29358;SDS011;16347;53.232;6.556;2022-10-16T14:06:32;21.23;;;2.90;;
29358;SDS011;16347;53.232;6.556;2022-10-16T14:09:05;11.70;;;2.00;;
29358;SDS011;16347;53.232;6.556;2022-10-16T14:11:35;15.38;;;2.60;;
29358;SDS011;16347;53.232;6.556;2022-10-16T14:14:13;14.50;;;2.78;;
29358;SDS011;16347;53.232;6.556;2022-10-16T14:16:42;12.45;;;2.38;;
29358;SDS011;16347;53.232;6.556;2022-10-16T14:19:14;12.68;;;2.33;;
29358;SDS011;16347;53.232;6.556;2022-10-16T14:21:46;13.15;;;2.40;;
29358;SDS011;16347;53.232;6.556;2022-10-16T14:24:22;10.73;;;2.20;;
29358;SDS011;16347;53.232;6.556;2022-10-16T14:26:53;15.02;;;2.42;;
29358;SDS011;16347;53.232;6.556;2022-10-16T14:29:25;18.75;;;2.70;;
29358;SDS011;16347;53.232;6.556;2022-10-16T14:31:54;11.75;;;2.55;;
29358;SDS011;16347;53.232;6.556;2022-10-16T14:34:27;21.20;;;2.90;;
29358;SDS011;16347;53.232;6.556;2022-10-16T14:36:59;15.15;;;2.47;;
29358;SDS011;16347;53.232;6.556;2022-10-16T14:39:38;11.20;;;2.33;;
29358;SDS011;16347;53.232;6.556;2022-10-16T14:42:11;13.77;;;2.50;;
29358;SDS011;16347;53.232;6.556;2022-10-16T14:44:44;16.65;;;3.10;;
29358;SDS011;16347;53.232;6.556;2022-10-16T14:47:16;18.38;;;2.60;;
29358;SDS011;16347;53.232;6.556;2022-10-16T14:49:48;13.90;;;2.00;;
29358;SDS011;16347;53.232;6.556;2022-10-16T14:52:16;18.13;;;2.38;;
29358;SDS011;16347;53.232;6.556;2022-10-16T14:54:48;21.08;;;2.67;;
29358;SDS011;16347;53.232;6.556;2022-10-16T14:57:17;19.80;;;3.38;;
29358;SDS011;16347;53.232;6.556;2022-10-16T14:59:48;12.63;;;2.83;;
29358;SDS011;16347;53.232;6.556;2022-10-16T15:02:20;20.73;;;3.03;;
29358;SDS011;16347;53.232;6.556;2022-10-16T15:04:53;10.40;;;2.35;;
29358;SDS011;16347;53.232;6.556;2022-10-16T15:07:22;12.95;;;2.60;;
29358;SDS011;16347;53.232;6.556;2022-10-16T15:09:50;20.05;;;2.75;;
29358;SDS011;16347;53.232;6.556;2022-10-16T15:12:19;15.02;;;2.85;;
29358;SDS011;16347;53.232;6.556;2022-10-16T15:14:48;17.88;;;2.83;;
29358;SDS011;16347;53.232;6.556;2022-10-16T15:17:16;17.80;;;2.88;;
29358;SDS011;16347;53.232;6.556;2022-10-16T15:19:47;20.77;;;3.25;;
29358;SDS011;16347;53.232;6.556;2022-10-16T15:22:15;13.65;;;2.38;;
29358;SDS011;16347;53.232;6.556;2022-10-16T15:24:43;16.48;;;2.42;;
29358;SDS011;16347;53.232;6.556;2022-10-16T15:27:11;13.43;;;2.67;;
29358;SDS011;16347;53.232;6.556;2022-10-16T15:29:39;18.33;;;2.97;;
29358;SDS011;16347;53.232;6.556;2022-10-16T15:32:09;18.55;;;3.53;;
29358;SDS011;16347;53.232;6.556;2022-10-16T15:34:38;15.52;;;2.17;;